createdAt,value
2022-09-29T02:28:53.814Z,975.20
2022-09-29T02:29:52.465Z,975.16
2022-09-29T02:30:52.377Z,975.14
2022-09-29T02:31:52.378Z,975.16
2022-09-29T02:32:52.192Z,975.20
2022-09-29T02:33:52.095Z,975.18
2022-09-29T02:34:52.006Z,975.20
2022-09-29T02:35:51.910Z,975.20
2022-09-29T02:36:51.822Z,975.19
2022-09-29T02:37:51.721Z,975.21
2022-09-29T02:38:51.637Z,975.23
2022-09-29T02:39:51.535Z,975.22
2022-09-29T02:40:51.502Z,975.23
2022-09-29T02:41:51.355Z,975.23
2022-09-29T02:42:51.258Z,975.25
2022-09-29T02:43:51.163Z,975.26
2022-09-29T02:44:51.071Z,975.25
2022-09-29T02:45:51.037Z,975.24
2022-09-29T02:46:50.884Z,975.26
2022-09-29T02:47:50.789Z,975.29
2022-09-29T02:48:50.714Z,975.26
2022-09-29T02:49:50.601Z,975.29
2022-09-29T02:50:50.511Z,975.25
2022-09-29T02:51:50.413Z,975.23
2022-09-29T02:52:50.323Z,975.28
2022-09-29T02:53:50.233Z,975.26
2022-09-29T02:54:50.138Z,975.29
2022-09-29T02:55:50.041Z,975.28
2022-09-29T02:56:49.950Z,975.31
2022-09-29T02:57:49.856Z,975.30
2022-09-29T02:58:49.764Z,975.35
2022-09-29T02:59:49.663Z,975.31
2022-09-29T03:00:49.680Z,975.37
2022-09-29T03:01:49.478Z,975.35
2022-09-29T03:02:49.393Z,975.34
2022-09-29T03:03:49.329Z,975.37
2022-09-29T03:04:49.195Z,975.37
2022-09-29T03:05:49.111Z,975.37
2022-09-29T03:06:49.012Z,975.38
2022-09-29T03:07:48.917Z,975.38
2022-09-29T03:08:48.829Z,975.42
2022-09-29T03:09:48.763Z,975.43
2022-09-29T03:10:48.637Z,975.40
2022-09-29T03:11:48.542Z,975.41
2022-09-29T03:12:48.455Z,975.38
2022-09-29T03:13:48.357Z,975.41
2022-09-29T03:14:48.269Z,975.39
2022-09-29T03:15:48.172Z,975.42
2022-09-29T03:16:48.076Z,975.39
2022-09-29T03:17:48.007Z,975.37
2022-09-29T03:18:47.888Z,975.40
2022-09-29T03:19:47.818Z,975.39
2022-09-29T03:20:47.703Z,975.40
2022-09-29T03:21:47.602Z,975.38
2022-09-29T03:22:47.506Z,975.40
2022-09-29T03:23:47.415Z,975.40
2022-09-29T03:24:47.322Z,975.39
2022-09-29T03:25:47.233Z,975.37
2022-09-29T03:26:47.132Z,975.38
2022-09-29T03:27:47.045Z,975.39
2022-09-29T03:28:46.951Z,975.37
2022-09-29T03:29:46.849Z,975.39
2022-09-29T03:30:46.770Z,975.38
2022-09-29T03:31:46.701Z,975.41
2022-09-29T03:32:46.576Z,975.41
2022-09-29T03:33:46.481Z,975.41
2022-09-29T03:34:46.387Z,975.40
2022-09-29T03:35:46.298Z,975.44
2022-09-29T03:36:46.207Z,975.44
2022-09-29T03:37:46.107Z,975.47
2022-09-29T03:38:46.006Z,975.47
2022-09-29T03:39:45.918Z,975.43
2022-09-29T03:40:45.869Z,975.48
2022-09-29T03:41:45.733Z,975.44
2022-09-29T03:42:45.639Z,975.46
2022-09-29T03:43:45.540Z,975.48
2022-09-29T03:44:45.450Z,975.47
2022-09-29T03:45:45.409Z,975.52
2022-09-29T03:46:45.263Z,975.52
2022-09-29T03:47:45.172Z,975.49
2022-09-29T03:48:45.075Z,975.51
2022-09-29T03:49:44.981Z,975.53
2022-09-29T03:50:44.891Z,975.57
2022-09-29T03:51:44.790Z,975.52
2022-09-29T03:52:44.700Z,975.55
2022-09-29T03:53:44.605Z,975.55
2022-09-29T03:54:44.505Z,975.54
2022-09-29T03:55:44.422Z,975.54
2022-09-29T03:56:44.321Z,975.52
2022-09-29T03:57:44.225Z,975.57
2022-09-29T03:58:44.139Z,975.57
2022-09-29T03:59:45.691Z,975.60
2022-09-29T04:00:44.010Z,975.60
2022-09-29T04:01:43.879Z,975.61
2022-09-29T04:02:43.869Z,975.63
2022-09-29T04:03:43.668Z,975.64
2022-09-29T04:04:43.574Z,975.62
2022-09-29T04:05:43.478Z,975.65
2022-09-29T04:06:43.382Z,975.65
2022-09-29T04:07:43.286Z,975.65
2022-09-29T04:08:43.201Z,975.66
2022-09-29T04:09:43.097Z,975.66
2022-09-29T04:10:43.006Z,975.67
2022-09-29T04:11:42.917Z,975.66
2022-09-29T04:12:42.817Z,975.67
2022-09-29T04:13:42.725Z,975.66
2022-09-29T04:14:42.633Z,975.68
2022-09-29T04:15:42.534Z,975.65
2022-09-29T04:16:42.499Z,975.68
2022-09-29T04:17:42.351Z,975.70
2022-09-29T04:18:42.262Z,975.68
2022-09-29T04:19:42.156Z,975.72
2022-09-29T04:20:42.069Z,975.71
2022-09-29T04:21:41.979Z,975.68
2022-09-29T04:22:41.876Z,975.72
2022-09-29T04:23:41.781Z,975.68
2022-09-29T04:24:41.691Z,975.67
2022-09-29T04:25:41.593Z,975.67
2022-09-29T04:26:41.511Z,975.65
2022-09-29T04:27:41.408Z,975.66
2022-09-29T04:28:41.319Z,975.64
2022-09-29T04:29:41.222Z,975.66
2022-09-29T04:30:41.131Z,975.64
2022-09-29T04:31:41.082Z,975.66
2022-09-29T04:32:40.942Z,975.63
2022-09-29T04:33:40.847Z,975.66
2022-09-29T04:34:40.750Z,975.67
2022-09-29T04:35:40.656Z,975.61
2022-09-29T04:36:40.559Z,975.67
2022-09-29T04:37:40.469Z,975.69
2022-09-29T04:38:40.372Z,975.67
2022-09-29T04:39:40.282Z,975.66
2022-09-29T04:40:40.258Z,975.68
2022-09-29T04:41:40.096Z,975.70
2022-09-29T04:42:40.004Z,975.74
2022-09-29T04:43:39.911Z,975.76
2022-09-29T04:44:39.814Z,975.77
2022-09-29T04:45:39.782Z,975.80
2022-09-29T04:46:39.621Z,975.82
2022-09-29T04:47:39.534Z,975.86
2022-09-29T04:48:39.440Z,975.81
2022-09-29T04:49:39.346Z,975.83
2022-09-29T04:50:39.242Z,975.88
2022-09-29T04:51:39.152Z,975.90
2022-09-29T04:52:39.062Z,975.89
2022-09-29T04:53:38.971Z,975.91
2022-09-29T04:54:38.877Z,975.86
2022-09-29T04:55:38.790Z,975.88
2022-09-29T04:56:38.688Z,975.84
2022-09-29T04:57:38.593Z,975.92
2022-09-29T04:58:38.503Z,975.85
2022-09-29T04:59:38.404Z,975.91
2022-09-29T05:00:38.376Z,975.92
2022-09-29T05:01:38.220Z,975.90
2022-09-29T05:02:38.201Z,975.92
2022-09-29T05:03:38.031Z,975.88
2022-09-29T05:04:37.935Z,975.96
2022-09-29T05:05:37.838Z,975.92
2022-09-29T05:06:37.745Z,975.96
2022-09-29T05:07:37.656Z,975.91
2022-09-29T05:08:37.565Z,975.95
2022-09-29T05:09:37.465Z,975.95
2022-09-29T05:10:37.373Z,975.93
2022-09-29T05:11:37.279Z,975.97
2022-09-29T05:12:37.187Z,975.98
2022-09-29T05:13:37.094Z,975.96
2022-09-29T05:14:36.999Z,976.00
2022-09-29T05:15:36.898Z,976.01
2022-09-29T05:16:36.928Z,975.98
2022-09-29T05:17:36.716Z,976.01
2022-09-29T05:18:36.619Z,976.02
2022-09-29T05:19:36.527Z,976.01
2022-09-29T05:20:42.354Z,976.01
2022-09-29T05:21:36.337Z,976.02
2022-09-29T05:22:36.241Z,976.03
2022-09-29T05:23:36.152Z,976.05
2022-09-29T05:24:36.052Z,976.03
2022-09-29T05:25:35.967Z,976.09
2022-09-29T05:26:35.876Z,976.03
2022-09-29T05:27:35.783Z,976.07
2022-09-29T05:28:35.680Z,976.07
2022-09-29T05:29:35.587Z,976.09
2022-09-29T05:30:35.501Z,976.10
2022-09-29T05:31:35.428Z,976.04
2022-09-29T05:32:35.306Z,976.10
2022-09-29T05:33:35.212Z,976.04
2022-09-29T05:34:35.134Z,976.05
2022-09-29T05:35:35.024Z,976.09
2022-09-29T05:36:34.939Z,976.08
2022-09-29T05:37:34.860Z,976.07
2022-09-29T05:38:34.734Z,976.04
2022-09-29T05:39:34.709Z,976.02
2022-09-29T05:40:34.601Z,976.02
2022-09-29T05:41:34.461Z,976.02
2022-09-29T05:42:34.366Z,976.02
2022-09-29T05:43:34.293Z,976.02
2022-09-29T05:44:34.177Z,976.06
2022-09-29T05:45:34.146Z,976.00
2022-09-29T05:46:34.009Z,975.96
2022-09-29T05:47:33.894Z,975.96
2022-09-29T05:48:33.817Z,975.96
2022-09-29T05:49:33.707Z,975.97
2022-09-29T05:50:33.606Z,975.92
2022-09-29T05:51:33.522Z,975.95
2022-09-29T05:52:33.430Z,975.95
2022-09-29T05:53:33.333Z,975.94
2022-09-29T05:54:33.240Z,975.97
2022-09-29T05:55:33.145Z,975.95
2022-09-29T05:56:33.051Z,975.96
2022-09-29T05:57:32.980Z,975.94
2022-09-29T05:58:32.858Z,975.92
2022-09-29T05:59:32.769Z,975.92
2022-09-29T06:00:32.674Z,975.94
2022-09-29T06:01:32.725Z,975.91
2022-09-29T06:02:32.518Z,975.93
2022-09-29T06:03:32.392Z,975.94
2022-09-29T06:04:32.299Z,975.92
2022-09-29T06:05:32.201Z,975.95
2022-09-29T06:06:32.108Z,975.98
2022-09-29T06:07:32.013Z,975.97
2022-09-29T06:08:31.924Z,975.96
2022-09-29T06:09:31.832Z,975.94
2022-09-29T06:10:31.739Z,975.95
2022-09-29T06:11:31.641Z,975.93
2022-09-29T06:12:31.552Z,975.96
2022-09-29T06:13:31.450Z,975.99
2022-09-29T06:14:31.379Z,975.99
2022-09-29T06:15:31.272Z,975.98
2022-09-29T06:16:31.199Z,976.01
2022-09-29T06:17:31.080Z,976.02
2022-09-29T06:18:30.981Z,976.03
2022-09-29T06:19:30.888Z,976.01
2022-09-29T06:20:30.797Z,975.99
2022-09-29T06:21:30.702Z,976.03
2022-09-29T06:22:30.607Z,975.99
2022-09-29T06:23:30.512Z,976.01
2022-09-29T06:24:30.425Z,976.05
2022-09-29T06:25:30.329Z,976.03
2022-09-29T06:26:30.354Z,976.08
2022-09-29T06:27:30.142Z,976.10
2022-09-29T06:28:30.042Z,976.08
2022-09-29T06:29:29.956Z,976.09
2022-09-29T06:30:29.857Z,976.08
2022-09-29T06:31:29.790Z,976.10
2022-09-29T06:32:29.668Z,976.10
2022-09-29T06:33:29.576Z,976.11
2022-09-29T06:34:29.491Z,976.11
2022-09-29T06:35:29.389Z,976.14
2022-09-29T06:36:29.298Z,976.14
2022-09-29T06:37:29.202Z,976.14
2022-09-29T06:38:29.112Z,976.16
2022-09-29T06:39:29.013Z,976.19
2022-09-29T06:40:28.939Z,976.19
2022-09-29T06:41:28.830Z,976.23
2022-09-29T06:42:28.731Z,976.27
2022-09-29T06:43:28.643Z,976.27
2022-09-29T06:44:28.551Z,976.23
2022-09-29T06:45:28.505Z,976.25
2022-09-29T06:46:28.362Z,976.27
2022-09-29T06:47:28.276Z,976.31
2022-09-29T06:48:28.173Z,976.29
2022-09-29T06:49:28.085Z,976.29
2022-09-29T06:50:27.996Z,976.30
2022-09-29T06:51:40.215Z,976.31
2022-09-29T06:52:29.926Z,976.30
2022-09-29T06:53:36.036Z,976.32
2022-09-29T06:54:27.610Z,976.30
2022-09-29T06:55:27.518Z,976.32
2022-09-29T06:56:27.425Z,976.30
2022-09-29T06:57:27.333Z,976.30
2022-09-29T06:58:27.233Z,976.29
2022-09-29T06:59:27.147Z,976.33
2022-09-29T07:00:27.054Z,976.33
2022-09-29T07:01:27.019Z,976.34
2022-09-29T07:02:26.907Z,976.33
2022-09-29T07:03:26.778Z,976.35
2022-09-29T07:04:26.680Z,976.32
2022-09-29T07:05:26.583Z,976.32
2022-09-29T07:06:26.495Z,976.32
2022-09-29T07:07:26.399Z,976.31
2022-09-29T07:08:26.308Z,976.34
2022-09-29T07:09:26.215Z,976.28
2022-09-29T07:10:26.121Z,976.29
2022-09-29T07:11:26.026Z,976.31
2022-09-29T07:12:25.940Z,976.33
2022-09-29T07:13:25.842Z,976.33
2022-09-29T07:14:25.755Z,976.30
2022-09-29T07:15:25.651Z,976.32
2022-09-29T07:16:25.724Z,976.33
2022-09-29T07:17:25.470Z,976.34
2022-09-29T07:18:25.383Z,976.30
2022-09-29T07:19:25.286Z,976.34
2022-09-29T07:20:25.195Z,976.31
2022-09-29T07:21:25.099Z,976.34
2022-09-29T07:22:25.006Z,976.31
2022-09-29T07:23:24.911Z,976.36
2022-09-29T07:24:24.826Z,976.36
2022-09-29T07:25:47.296Z,976.34
2022-09-29T07:26:24.634Z,976.33
2022-09-29T07:27:24.538Z,976.35
2022-09-29T07:28:24.456Z,976.37
2022-09-29T07:29:24.418Z,976.31
2022-09-29T07:30:35.065Z,976.34
2022-09-29T07:31:24.208Z,976.37
2022-09-29T07:32:28.132Z,976.38
2022-09-29T07:33:35.958Z,976.41
2022-09-29T07:34:23.902Z,976.37
2022-09-29T07:35:23.809Z,976.35
2022-09-29T07:36:23.717Z,976.40
2022-09-29T07:37:23.664Z,976.37
2022-09-29T07:38:23.535Z,976.40
2022-09-29T07:39:23.452Z,976.40
2022-09-29T07:40:23.392Z,976.43
2022-09-29T07:41:23.273Z,976.41
2022-09-29T07:42:23.161Z,976.41
2022-09-29T07:43:23.068Z,976.42
2022-09-29T07:44:22.978Z,976.45
2022-09-29T07:45:22.886Z,976.39
2022-09-29T07:46:22.827Z,976.40
2022-09-29T07:47:22.705Z,976.38
2022-09-29T07:48:22.609Z,976.38
2022-09-29T07:49:22.518Z,976.40
2022-09-29T07:50:22.447Z,976.42
2022-09-29T07:51:22.335Z,976.47
2022-09-29T07:52:22.232Z,976.47
2022-09-29T07:53:22.151Z,976.50
2022-09-29T07:54:27.001Z,976.50
2022-09-29T07:55:21.966Z,976.48
2022-09-29T07:56:21.899Z,976.51
2022-09-29T07:57:21.787Z,976.54
2022-09-29T07:58:21.696Z,976.52
2022-09-29T07:59:21.599Z,976.55
2022-09-29T08:00:21.562Z,976.54
2022-09-29T08:01:21.479Z,976.53
2022-09-29T08:02:21.395Z,976.54
2022-09-29T08:03:21.236Z,976.58
2022-09-29T08:04:21.306Z,976.59
2022-09-29T08:05:21.055Z,976.61
2022-09-29T08:06:20.991Z,976.59
2022-09-29T08:07:20.877Z,976.58
2022-09-29T08:08:20.792Z,976.62
2022-09-29T08:09:22.289Z,976.60
2022-09-29T08:10:20.642Z,976.62
2022-09-29T08:11:30.519Z,976.64
2022-09-29T08:12:20.413Z,976.65
2022-09-29T08:13:20.319Z,976.66
2022-09-29T08:14:20.361Z,976.68
2022-09-29T08:15:20.158Z,976.70
2022-09-29T08:16:20.106Z,976.68
2022-09-29T08:17:19.953Z,976.69
2022-09-29T08:18:19.935Z,976.72
2022-09-29T08:19:19.780Z,976.71
2022-09-29T08:20:19.910Z,976.73
2022-09-29T08:21:19.601Z,976.78
2022-09-29T08:22:19.511Z,976.76
2022-09-29T08:23:19.410Z,976.77
2022-09-29T08:24:19.469Z,976.76
2022-09-29T08:25:19.257Z,976.71
2022-09-29T08:26:22.607Z,976.77
2022-09-29T08:27:19.549Z,976.82
2022-09-29T12:14:40.564Z,977.84
2022-09-29T12:15:40.222Z,977.83
2022-09-29T13:26:27.278Z,978.11
2022-09-29T13:27:14.636Z,978.12
2022-09-29T13:29:10.659Z,978.09
2022-09-29T13:30:10.539Z,978.10
2022-09-29T13:33:45.922Z,978.06
2022-09-29T13:34:32.986Z,978.04
2022-09-29T13:44:15.323Z,978.09
2022-09-29T13:45:15.230Z,978.08
2022-09-29T13:52:23.372Z,978.17
2022-09-29T13:53:23.269Z,978.11
2022-09-29T13:57:05.749Z,978.15
2022-09-29T13:57:55.759Z,978.11
2022-09-29T14:00:03.651Z,978.24
2022-09-29T14:01:03.588Z,978.15
2022-09-29T14:03:20.455Z,978.22
2022-09-29T14:04:20.370Z,978.22
2022-09-29T14:06:41.835Z,978.26
2022-09-29T14:07:25.662Z,978.19
2022-09-29T14:09:25.995Z,978.22
2022-09-29T14:10:25.814Z,978.22
2022-09-29T14:12:31.231Z,978.29
2022-09-29T14:13:31.149Z,978.30
2022-09-29T14:16:01.194Z,978.29
2022-09-29T14:17:01.033Z,978.31
2022-09-29T14:21:41.006Z,978.26
2022-09-29T14:22:33.381Z,978.31
2022-09-29T14:24:47.869Z,978.30
2022-09-29T14:25:47.787Z,978.32
2022-09-29T14:26:47.677Z,978.32
2022-09-29T14:27:47.631Z,978.34
2022-09-29T14:28:47.501Z,978.31
2022-09-29T14:29:47.459Z,978.37
2022-09-29T14:30:47.364Z,978.32
2022-09-29T14:31:47.280Z,978.33
2022-09-29T14:32:47.160Z,978.36
2022-09-29T14:33:47.074Z,978.36
2022-09-29T14:34:46.991Z,978.36
2022-09-29T14:35:46.910Z,978.38
2022-09-29T14:36:46.826Z,978.37
2022-09-29T14:37:46.720Z,978.38
2022-09-29T14:38:57.869Z,978.43
2022-09-29T14:39:46.598Z,978.42
2022-09-29T14:40:46.482Z,978.42
2022-09-29T14:41:46.385Z,978.49
2022-09-29T14:42:46.334Z,978.46
2022-09-29T14:43:46.208Z,978.46
2022-09-29T14:44:46.123Z,978.49
2022-09-29T14:45:46.075Z,978.48
2022-09-29T14:46:45.956Z,978.50
2022-09-29T14:47:45.954Z,978.48
2022-09-29T14:48:45.809Z,978.54
2022-09-29T14:49:45.691Z,978.49
2022-09-29T14:50:45.607Z,978.59
2022-09-29T14:51:45.535Z,978.58
2022-09-29T14:52:45.438Z,978.59
2022-09-29T14:53:45.363Z,978.62
2022-09-29T14:54:45.266Z,978.70
2022-09-29T14:55:45.191Z,978.69
2022-09-29T14:56:45.110Z,978.65
2022-09-29T14:57:45.016Z,978.72
2022-09-29T14:58:44.918Z,978.69
2022-09-29T14:59:44.852Z,978.75
2022-09-29T15:00:44.762Z,978.70
2022-09-29T15:01:44.664Z,978.97
2022-09-29T15:02:44.659Z,978.86
2022-09-29T15:03:44.666Z,978.70
2022-09-29T15:04:44.405Z,978.66
2022-09-29T15:05:44.319Z,978.65
2022-09-29T15:06:44.231Z,978.68
2022-09-29T15:07:44.201Z,978.68
2022-09-29T15:08:44.074Z,978.77
2022-09-29T15:09:44.043Z,978.76
2022-09-29T15:10:43.884Z,978.70
2022-09-29T15:11:43.810Z,978.83
2022-09-29T15:12:43.721Z,979.12
2022-09-29T15:13:43.674Z,978.80
2022-09-29T15:14:43.542Z,978.78
2022-09-29T15:15:43.495Z,978.77
2022-09-29T15:16:43.406Z,978.93
2022-09-29T15:17:43.297Z,979.17
2022-09-29T15:18:43.239Z,979.06
2022-09-29T15:19:43.119Z,978.91
2022-09-29T15:20:43.040Z,978.79
2022-09-29T15:21:42.948Z,978.87
2022-09-29T15:22:42.863Z,978.82
2022-09-29T15:23:42.775Z,978.90
2022-09-29T15:24:42.732Z,978.89
2022-09-29T15:25:42.607Z,978.90
2022-09-29T15:26:42.522Z,978.86
2022-09-29T15:27:42.478Z,978.94
2022-09-29T15:28:42.352Z,978.95
2022-09-29T15:29:42.295Z,979.03
2022-09-29T15:30:42.303Z,979.10
2022-09-29T15:31:42.096Z,979.18
2022-09-29T15:32:42.014Z,979.15
2022-09-29T15:33:41.979Z,979.22
2022-09-29T15:34:41.841Z,979.25
2022-09-29T15:35:41.801Z,979.22
2022-09-29T15:36:41.679Z,979.13
2022-09-29T15:37:41.596Z,979.00
2022-09-29T15:38:41.524Z,979.04
2022-09-29T15:39:41.426Z,979.14
2022-09-29T15:40:41.342Z,979.03
2022-09-29T15:41:41.261Z,978.90
2022-09-29T15:42:41.168Z,978.89
2022-09-29T15:43:41.113Z,978.98
2022-09-29T15:44:41.007Z,979.00
2022-09-29T15:45:40.943Z,979.01
2022-09-29T15:46:40.887Z,978.97
2022-09-29T15:47:40.761Z,978.96
2022-09-29T15:48:40.680Z,978.91
2022-09-29T15:49:40.587Z,978.92
2022-09-29T15:50:40.521Z,978.93
2022-09-29T15:51:40.417Z,978.92
2022-09-29T15:52:40.339Z,978.95
2022-09-29T15:53:40.252Z,978.97
2022-09-29T15:54:40.653Z,978.98
2022-09-29T15:55:40.143Z,978.97
2022-09-29T15:56:40.044Z,978.98
2022-09-29T15:57:39.919Z,979.01
2022-09-29T15:58:39.884Z,979.00
2022-09-29T15:59:39.830Z,979.08
2022-09-29T16:00:39.717Z,979.13
2022-09-29T16:01:39.608Z,979.12
2022-09-29T16:02:39.582Z,979.13
2022-09-29T16:03:39.413Z,979.14
2022-09-29T16:04:39.341Z,979.09
2022-09-29T16:05:41.518Z,979.15
2022-09-29T16:06:39.158Z,979.14
2022-09-29T16:07:39.090Z,979.17
2022-09-29T16:08:38.977Z,979.16
2022-09-29T16:09:38.936Z,979.15
2022-09-29T16:10:38.868Z,979.16
2022-09-29T16:11:38.722Z,979.16
2022-09-29T16:12:38.643Z,979.18
2022-09-29T16:13:38.553Z,979.23
2022-09-29T16:14:38.502Z,979.23
2022-09-29T16:15:38.407Z,979.25
2022-09-29T16:16:38.303Z,979.27
2022-09-29T16:17:38.207Z,979.28
2022-09-29T16:18:38.120Z,979.25
2022-09-29T16:19:38.089Z,979.30
2022-09-29T16:20:37.952Z,979.27
2022-09-29T16:21:37.871Z,979.26
2022-09-29T16:22:37.790Z,979.28
2022-09-29T16:23:37.696Z,979.34
2022-09-29T16:24:37.628Z,979.32
2022-09-29T16:25:37.565Z,979.31
2022-09-29T16:26:37.437Z,979.30
2022-09-29T16:27:37.371Z,979.37
2022-09-29T16:28:37.256Z,979.33
2022-09-29T16:29:37.173Z,979.37
2022-09-29T16:30:37.091Z,979.33
2022-09-29T16:31:37.044Z,979.32
2022-09-29T16:32:42.081Z,979.36
2022-09-29T16:33:36.868Z,979.35
2022-09-29T16:34:36.747Z,979.37
2022-09-29T16:35:36.659Z,979.39
2022-09-29T16:36:36.598Z,979.39
2022-09-29T16:37:36.492Z,979.39
2022-09-29T16:38:36.400Z,979.46
2022-09-29T16:39:36.363Z,979.45
2022-09-29T16:40:36.225Z,979.43
2022-09-29T16:41:36.139Z,979.49
2022-09-29T16:42:36.052Z,979.46
2022-09-29T16:43:35.979Z,979.48
2022-09-29T16:44:35.875Z,979.51
2022-09-29T16:45:35.822Z,979.51
2022-09-29T16:46:35.755Z,979.51
2022-09-29T16:47:35.609Z,979.48
2022-09-29T16:48:35.523Z,979.47
2022-09-29T16:49:35.448Z,979.50
2022-09-29T16:50:35.396Z,979.50
2022-09-29T16:51:39.203Z,979.49
2022-09-29T16:52:35.177Z,979.51
2022-09-29T16:53:35.091Z,979.49
2022-09-29T16:54:34.997Z,979.51
2022-09-29T16:55:34.911Z,979.51
2022-09-29T16:56:34.831Z,979.51
2022-09-29T16:57:34.744Z,979.54
2022-09-29T16:58:34.656Z,979.59
2022-09-29T16:59:34.564Z,979.57
2022-09-29T17:00:34.490Z,979.56
2022-09-29T17:01:34.461Z,979.64
2022-09-29T17:02:34.324Z,979.64
2022-09-29T17:03:34.216Z,979.68
2022-09-29T17:04:34.123Z,979.65
2022-09-29T17:05:34.041Z,979.69
2022-09-29T17:06:33.996Z,979.67
2022-09-29T17:07:33.861Z,979.75
2022-09-29T17:08:33.773Z,979.75
2022-09-29T17:09:33.756Z,979.76
2022-09-29T17:10:33.638Z,979.80
2022-09-29T17:11:33.532Z,979.80
2022-09-29T17:12:33.447Z,979.81
2022-09-29T17:13:33.332Z,979.84
2022-09-29T17:14:33.249Z,979.86
2022-09-29T17:15:33.214Z,979.88
2022-09-29T17:16:33.085Z,979.86
2022-09-29T17:17:32.997Z,979.88
2022-09-29T17:18:32.908Z,979.87
2022-09-29T17:19:32.817Z,979.91
2022-09-29T17:20:32.731Z,979.92
2022-09-29T17:21:34.537Z,979.98
2022-09-29T17:22:32.567Z,979.97
2022-09-29T17:23:32.459Z,979.96
2022-09-29T17:24:32.369Z,979.99
2022-09-29T17:25:32.271Z,979.99
2022-09-29T17:26:32.214Z,979.99
2022-09-29T17:27:32.148Z,979.99
2022-09-29T17:28:36.448Z,979.99
2022-09-29T17:29:31.935Z,979.97
2022-09-29T17:30:31.851Z,980.01
2022-09-29T17:31:31.771Z,980.03
2022-09-29T17:32:31.665Z,980.04
2022-09-29T17:33:31.573Z,980.04
2022-09-29T17:34:31.477Z,980.05
2022-09-29T17:35:31.396Z,980.04
2022-09-29T17:36:31.313Z,980.06
2022-09-29T17:37:31.297Z,980.06
2022-09-29T17:38:31.155Z,980.05
2022-09-29T17:39:31.043Z,980.09
2022-09-29T17:40:31.015Z,980.14
2022-09-29T17:41:30.871Z,980.12
2022-09-29T17:42:30.775Z,980.16
2022-09-29T17:43:30.689Z,980.15
2022-09-29T17:44:31.081Z,980.17
2022-09-29T17:45:30.570Z,980.18
2022-09-29T17:46:30.505Z,980.17
2022-09-29T17:47:32.063Z,980.22
2022-09-29T17:48:30.254Z,980.22
2022-09-29T17:49:30.157Z,980.23
2022-09-29T17:50:30.062Z,980.24
2022-09-29T17:51:29.979Z,980.25
2022-09-29T17:52:29.888Z,980.29
2022-09-29T17:53:29.807Z,980.28
2022-09-29T17:54:29.800Z,980.27
2022-09-29T17:55:29.638Z,980.24
2022-09-29T17:56:29.543Z,980.28
2022-09-29T17:57:29.446Z,980.24
2022-09-29T17:58:29.373Z,980.24
2022-09-29T17:59:29.293Z,980.26
2022-09-29T18:00:29.183Z,980.28
2022-09-29T18:01:29.116Z,980.28
2022-09-29T18:02:29.035Z,980.26
2022-09-29T18:03:28.916Z,980.28
2022-09-29T18:04:28.823Z,980.30
2022-09-29T18:05:28.729Z,980.28
2022-09-29T18:06:28.640Z,980.29
2022-09-29T18:07:28.549Z,980.30
2022-09-29T18:08:28.508Z,980.28
2022-09-29T18:09:28.409Z,980.34
2022-09-29T18:10:28.295Z,980.33
2022-09-29T18:11:28.190Z,980.34
2022-09-29T18:12:28.127Z,980.35
2022-09-29T18:13:28.007Z,980.33
2022-09-29T18:14:27.922Z,980.30
2022-09-29T18:15:27.842Z,980.36
2022-09-29T18:16:27.828Z,980.35
2022-09-29T18:17:27.715Z,980.31
2022-09-29T18:18:27.631Z,980.34
2022-09-29T18:19:27.549Z,980.35
2022-09-29T18:20:27.389Z,980.32
2022-09-29T18:21:27.299Z,980.30
2022-09-29T18:22:27.203Z,980.36
2022-09-29T18:23:27.160Z,980.32
2022-09-29T18:24:27.032Z,980.39
2022-09-29T18:25:26.928Z,980.33
2022-09-29T18:26:26.928Z,980.38
2022-09-29T18:27:26.760Z,980.35
2022-09-29T18:28:26.665Z,980.33
2022-09-29T18:29:26.579Z,980.37
2022-09-29T18:30:26.568Z,980.39
2022-09-29T18:31:26.599Z,980.37
2022-09-29T18:32:26.311Z,980.38
2022-09-29T18:33:26.211Z,980.40
2022-09-29T18:34:26.147Z,980.42
2022-09-29T18:35:26.039Z,980.43
2022-09-29T18:36:26.003Z,980.48
2022-09-29T18:37:25.857Z,980.49
2022-09-29T18:38:25.779Z,980.52
2022-09-29T18:39:25.684Z,980.56
2022-09-29T18:40:25.588Z,980.53
2022-09-29T18:41:25.541Z,980.56
2022-09-29T18:42:25.403Z,980.57
2022-09-29T18:43:25.323Z,980.57
2022-09-29T18:44:25.225Z,980.57
2022-09-29T18:45:25.134Z,980.59
2022-09-29T18:46:25.127Z,980.60
2022-09-29T18:47:24.959Z,980.60
2022-09-29T18:48:24.864Z,980.63
2022-09-29T18:49:24.775Z,980.61
2022-09-29T18:50:24.707Z,980.64
2022-09-29T18:51:24.612Z,980.60
2022-09-29T18:52:24.505Z,980.58
2022-09-29T18:53:24.496Z,980.60
2022-09-29T18:54:24.367Z,980.61
2022-09-29T18:55:24.234Z,980.60
2022-09-29T18:56:24.205Z,980.61
2022-09-29T18:57:24.095Z,980.63
2022-09-29T18:58:23.963Z,980.64
2022-09-29T18:59:23.865Z,980.63
2022-09-29T19:00:23.821Z,980.66
2022-09-29T19:01:23.792Z,980.66
2022-09-29T19:02:23.804Z,980.66
2022-09-29T19:03:23.514Z,980.69
2022-09-29T19:04:23.422Z,980.67
2022-09-29T19:05:23.325Z,980.66
2022-09-29T19:06:23.237Z,980.70
2022-09-29T19:07:23.142Z,980.68
2022-09-29T19:08:23.054Z,980.70
2022-09-29T19:09:23.217Z,980.68
2022-09-29T19:10:22.872Z,980.68
2022-09-29T19:11:22.782Z,980.71
2022-09-29T19:12:22.695Z,980.67
2022-09-29T19:13:22.642Z,980.66
2022-09-29T19:14:22.508Z,980.64
2022-09-29T19:15:22.464Z,980.63
2022-09-29T19:16:22.480Z,980.68
2022-09-29T19:17:22.305Z,980.63
2022-09-29T19:18:22.150Z,980.69
2022-09-29T19:19:22.155Z,980.71
2022-09-29T19:20:22.022Z,980.73
2022-09-29T19:21:21.925Z,980.72
2022-09-29T19:22:21.832Z,980.73
2022-09-29T19:23:21.699Z,980.74
2022-09-29T19:24:21.606Z,980.76
2022-09-29T19:25:21.562Z,980.76
2022-09-29T19:26:21.426Z,980.76
2022-09-29T19:27:21.351Z,980.81
2022-09-29T19:28:21.239Z,980.80
2022-09-29T19:29:21.201Z,980.85
2022-09-29T19:30:21.063Z,980.82
2022-09-29T19:31:21.079Z,980.83
2022-09-29T19:32:20.876Z,980.85
2022-09-29T19:33:20.779Z,980.85
2022-09-29T19:34:20.697Z,980.83
2022-09-29T19:35:20.618Z,980.83
2022-09-29T19:36:20.514Z,980.85
2022-09-29T19:37:20.418Z,980.90
2022-09-29T19:38:20.326Z,980.90
2022-09-29T19:39:20.268Z,980.88
2022-09-29T19:40:20.153Z,980.92
2022-09-29T19:41:20.051Z,980.90
2022-09-29T19:42:19.970Z,980.88
2022-09-29T19:43:19.895Z,980.90
2022-09-29T19:44:19.791Z,980.91
2022-09-29T19:45:19.703Z,980.92
2022-09-29T19:46:19.693Z,980.91
2022-09-29T19:47:19.519Z,980.94
2022-09-29T19:48:19.417Z,980.94
2022-09-29T19:49:19.392Z,980.93
2022-09-29T19:50:19.252Z,980.94
2022-09-29T19:51:19.150Z,980.93
2022-09-29T19:52:19.052Z,980.94
2022-09-29T19:53:18.960Z,980.95
2022-09-29T19:54:19.041Z,980.98
2022-09-29T19:55:18.801Z,980.98
2022-09-29T19:56:18.689Z,980.97
2022-09-29T19:57:18.646Z,981.03
2022-09-29T19:58:18.504Z,980.99
2022-09-29T19:59:18.455Z,980.99
2022-09-29T20:00:18.321Z,980.96
2022-09-29T20:01:18.261Z,981.01
2022-09-29T20:02:18.188Z,981.00
2022-09-29T20:03:18.048Z,980.98
2022-09-29T20:04:18.011Z,981.01
2022-09-29T20:05:17.888Z,981.01
2022-09-29T20:06:17.806Z,980.99
2022-09-29T20:07:17.692Z,981.00
2022-09-29T20:08:17.614Z,981.03
2022-09-29T20:09:17.543Z,981.01
2022-09-29T20:10:17.410Z,981.01
2022-09-29T20:11:17.315Z,981.02
2022-09-29T20:12:19.471Z,981.05
2022-09-29T20:13:17.129Z,981.04
2022-09-29T20:14:17.168Z,981.07
2022-09-29T20:15:16.971Z,981.07
2022-09-29T20:16:16.906Z,981.09
2022-09-29T20:17:16.778Z,981.15
2022-09-29T20:18:16.676Z,981.13
2022-09-29T20:19:16.603Z,981.15
2022-09-29T20:20:16.500Z,981.16
2022-09-29T20:21:16.401Z,981.21
2022-09-29T20:22:16.315Z,981.21
2022-09-29T20:23:17.839Z,981.22
2022-09-29T20:24:16.127Z,981.20